Time;durP1;ratioP1;P1;durP2;ratioP2;P2;SDS_P1;SDS_P2;PMS_P1;PMS_P2;Temp;Humidity;BMP_temperature;BMP_pressure;BME280_temperature;BME280_humidity;BME280_pressure;Samples;Min_cycle;Max_cycle;Signal;HPM_P1;HPM_P2
2022/03/23 00:00:26;;;;;;;43.83;22.55;;;;;;;6.09;78.00;101954.75;8277246;28;20057;-64
2022/03/23 00:04:26;;;;;;;46.70;21.75;;;;;;;6.05;77.65;101958.53;8283367;28;20045;-64
2022/03/23 00:08:27;;;;;;;40.15;20.85;;;;;;;5.96;77.84;101953.63;8232476;28;20088;-64
2022/03/23 00:12:27;;;;;;;44.70;21.67;;;;;;;5.94;77.97;101955.50;8252614;28;20402;-64
2022/03/23 00:16:28;;;;;;;35.83;19.55;;;;;;;5.90;77.64;101961.97;8253491;28;20043;-64
2022/03/23 00:20:28;;;;;;;39.50;20.27;;;;;;;5.80;77.79;101958.00;8262175;28;20044;-64
2022/03/23 00:24:29;;;;;;;40.72;19.77;;;;;;;5.70;78.70;101956.66;8282682;28;20510;-64
2022/03/23 00:28:29;;;;;;;47.67;21.60;;;;;;;5.61;79.65;101954.44;8240111;28;20069;-64
2022/03/23 00:32:30;;;;;;;42.63;21.27;;;;;;;5.49;80.71;101955.06;8252253;28;20038;-64
2022/03/23 00:36:30;;;;;;;49.95;21.05;;;;;;;5.60;79.76;101956.28;8251132;28;20515;-64
2022/03/23 00:40:30;;;;;;;41.95;19.83;;;;;;;5.68;79.43;101959.44;8253385;28;20038;-64
2022/03/23 00:44:31;;;;;;;35.88;19.85;;;;;;;5.67;79.18;101962.19;8253567;28;20044;-64
2022/03/23 00:48:31;;;;;;;44.42;21.02;;;;;;;5.45;80.09;101961.50;8252368;28;20048;-64
2022/03/23 00:52:32;;;;;;;38.15;21.13;;;;;;;5.20;81.59;101960.91;8280170;28;20034;-64
2022/03/23 00:56:32;;;;;;;48.85;22.50;;;;;;;5.11;82.45;101966.69;8284349;28;20486;-64
2022/03/23 01:00:32;;;;;;;40.03;21.08;;;;;;;5.23;81.85;101961.66;8274407;28;20202;-64
2022/03/23 01:04:33;;;;;;;39.95;19.85;;;;;;;5.25;80.97;101964.25;8252840;28;20486;-64
2022/03/23 01:08:34;;;;;;;42.17;19.58;;;;;;;5.17;81.46;101961.94;8252963;28;20364;-64
2022/03/23 01:12:34;;;;;;;42.20;19.77;;;;;;;5.10;81.84;101956.91;8250983;28;20096;-64
2022/03/23 01:16:35;;;;;;;41.85;19.63;;;;;;;5.17;81.61;101950.31;8249055;28;20328;-64
2022/03/23 01:20:36;;;;;;;38.85;20.85;;;;;;;5.14;81.16;101955.84;8261525;28;20041;-64
2022/03/23 01:24:37;;;;;;;37.78;19.23;;;;;;;5.32;80.25;101950.50;8283609;28;20112;-64
2022/03/23 01:28:37;;;;;;;42.47;20.30;;;;;;;5.40;79.32;101952.81;8283552;28;20072;-64
2022/03/23 01:32:39;;;;;;;34.92;20.00;;;;;;;5.29;80.12;101949.75;8245643;28;20037;-64
2022/03/23 01:36:39;;;;;;;40.83;19.80;;;;;;;5.14;80.76;101951.34;8249812;28;20549;-64
2022/03/23 01:40:40;;;;;;;43.35;20.35;;;;;;;5.02;81.07;101956.38;8250401;28;20034;-64
2022/03/23 01:44:40;;;;;;;41.38;19.80;;;;;;;4.74;82.91;101950.56;8252109;28;20152;-64
2022/03/23 01:48:41;;;;;;;43.13;20.33;;;;;;;4.71;82.91;101951.56;8249059;28;20040;-64
2022/03/23 01:52:41;;;;;;;39.75;20.35;;;;;;;4.34;85.00;101947.88;8279218;28;20521;-64
2022/03/23 01:56:42;;;;;;;39.75;20.33;;;;;;;4.42;85.32;101948.44;8281265;28;20285;-64
2022/03/23 02:00:42;;;;;;;44.42;21.38;;;;;;;4.69;84.43;101953.44;8271109;28;20445;-64
2022/03/23 02:04:43;;;;;;;45.13;22.10;;;;;;;5.02;84.16;101951.03;8249709;28;20062;-64
2022/03/23 02:08:43;;;;;;;38.05;20.52;;;;;;;4.85;82.99;101946.44;8248720;28;20051;-64
2022/03/23 02:12:44;;;;;;;41.35;20.52;;;;;;;4.60;84.28;101948.47;8270447;28;20038;-64
2022/03/23 02:16:47;;;;;;;40.50;21.52;;;;;;;4.77;83.55;101939.69;8252254;28;20047;-64
2022/03/23 02:20:47;;;;;;;41.58;21.52;;;;;;;4.47;84.41;101949.09;8263088;28;20096;-64
2022/03/23 02:24:48;;;;;;;42.88;21.90;;;;;;;4.25;85.08;101951.84;8285998;28;20042;-64
2022/03/23 02:28:51;;;;;;;43.65;21.08;;;;;;;4.19;85.60;101951.22;8292255;28;20050;-64
2022/03/23 02:32:52;;;;;;;44.83;20.40;;;;;;;4.13;86.21;101940.78;8292092;28;20036;-64
2022/03/23 02:36:52;;;;;;;39.05;21.02;;;;;;;4.08;86.03;101949.88;8291550;28;20045;-64
2022/03/23 02:40:53;;;;;;;43.45;20.52;;;;;;;4.15;85.46;101942.47;8292626;28;20560;-64
2022/03/23 02:44:54;;;;;;;44.65;20.65;;;;;;;4.17;85.30;101937.91;8277990;28;20117;-64
2022/03/23 02:48:55;;;;;;;41.83;18.02;;;;;;;4.45;83.97;101933.09;8260930;28;20038;-64
2022/03/23 03:01:53;;;;;;;35.42;20.17;;;;;;;4.22;84.89;101935.03;8273039;28;20046;-64
2022/03/23 03:05:53;;;;;;;42.00;19.35;;;;;;;4.35;84.12;101942.47;8259747;28;20119;-64
2022/03/23 03:09:54;;;;;;;39.60;19.63;;;;;;;4.07;84.60;101948.16;8257560;28;20184;-64
2022/03/23 03:13:54;;;;;;;47.95;20.73;;;;;;;3.94;86.05;101944.22;8264842;28;20451;-64
2022/03/23 03:17:58;;;;;;;41.88;21.00;;;;;;;4.11;85.08;101948.03;8277183;28;20042;-64
2022/03/23 03:21:58;;;;;;;50.95;21.75;;;;;;;3.93;85.86;101950.53;8257950;28;20047;-64
2022/03/23 03:26:01;;;;;;;42.25;20.20;;;;;;;3.94;86.60;101946.06;8272312;28;20041;-64
2022/03/23 03:30:04;;;;;;;41.10;20.48;;;;;;;3.99;85.83;101944.91;8268408;28;20488;-64
2022/03/23 03:34:05;;;;;;;47.97;20.77;;;;;;;3.76;85.96;101950.31;8271778;28;20121;-64
2022/03/23 03:38:07;;;;;;;42.53;21.25;;;;;;;3.56;87.72;101949.41;8257857;28;20042;-64
2022/03/23 03:42:07;;;;;;;40.42;19.88;;;;;;;3.72;86.82;101956.75;8254894;28;20101;-64
2022/03/23 03:46:08;;;;;;;39.90;19.90;;;;;;;3.66;87.33;101957.00;8263552;28;20046;-63
2022/03/23 03:50:09;;;;;;;41.10;20.20;;;;;;;3.74;86.30;101959.34;8258217;28;20039;-63
2022/03/23 03:54:09;;;;;;;43.10;20.70;;;;;;;3.62;87.20;101959.84;8268135;28;20045;-63
2022/03/23 03:58:12;;;;;;;40.35;20.08;;;;;;;3.40;88.54;101964.31;8273700;28;20598;-63
2022/03/23 04:02:14;;;;;;;40.20;19.63;;;;;;;3.69;87.21;101972.91;8264290;28;20037;-63
2022/03/23 04:06:14;;;;;;;43.35;19.48;;;;;;;3.72;86.47;101966.59;8264115;28;20573;-63
2022/03/23 04:10:15;;;;;;;44.65;21.33;;;;;;;3.61;87.30;101958.13;8258315;28;20406;-63
2022/03/23 04:14:16;;;;;;;44.40;20.27;;;;;;;3.48;88.36;101963.06;8256206;28;20041;-63
2022/03/23 04:18:17;;;;;;;41.05;20.27;;;;;;;3.26;89.12;101959.50;8256151;28;20499;-63
2022/03/23 04:22:17;;;;;;;41.33;20.73;;;;;;;3.24;89.90;101969.41;8273159;28;20589;-63
2022/03/23 04:26:17;;;;;;;42.53;18.90;;;;;;;3.34;89.71;101976.13;8265547;28;20141;-64
2022/03/23 04:30:19;;;;;;;40.83;19.73;;;;;;;3.19;90.26;101975.81;8247953;28;20146;-64
2022/03/23 04:34:20;;;;;;;35.72;19.00;;;;;;;3.16;90.44;101983.97;8257640;28;20043;-64
2022/03/23 04:38:20;;;;;;;43.10;21.77;;;;;;;3.12;90.62;101975.22;8247109;28;20595;-64
2022/03/23 04:42:21;;;;;;;40.42;20.15;;;;;;;3.19;89.97;101982.06;8272964;28;20070;-64
2022/03/23 04:46:21;;;;;;;42.90;20.40;;;;;;;3.24;90.14;101980.09;8255532;28;20058;-64
2022/03/23 04:50:22;;;;;;;35.65;19.45;;;;;;;3.18;90.38;101980.31;8266490;28;20095;-64
2022/03/23 04:54:22;;;;;;;36.42;19.27;;;;;;;3.22;90.36;101979.25;8282945;28;20053;-64
2022/03/23 04:58:24;;;;;;;39.67;19.88;;;;;;;3.26;90.82;101977.34;8283320;28;20045;-64
2022/03/23 05:02:26;;;;;;;40.38;19.90;;;;;;;3.22;90.93;101991.75;8267656;28;20038;-64
2022/03/23 05:06:26;;;;;;;36.00;18.58;;;;;;;3.19;91.30;101986.50;8267145;28;20035;-64
2022/03/23 05:10:28;;;;;;;41.55;18.17;;;;;;;3.18;91.03;101980.31;8248862;28;20562;-64
2022/03/23 05:14:28;;;;;;;43.03;19.85;;;;;;;3.24;90.49;101985.44;8243292;28;20041;-64
2022/03/23 05:18:29;;;;;;;44.05;19.13;;;;;;;3.25;90.45;101992.50;8265867;28;20062;-64
2022/03/23 05:22:29;;;;;;;42.00;19.80;;;;;;;3.26;90.80;101990.72;8275545;28;20407;-64
2022/03/23 05:26:30;;;;;;;41.28;19.25;;;;;;;3.25;90.62;101992.50;8262338;28;20039;-63
2022/03/23 05:30:30;;;;;;;37.50;18.60;;;;;;;3.38;90.08;101991.09;8257176;28;20034;-63
2022/03/23 05:34:31;;;;;;;38.35;17.92;;;;;;;3.39;89.35;101992.84;8254061;28;20041;-64
2022/03/23 05:38:31;;;;;;;35.33;18.48;;;;;;;3.40;89.03;101994.59;8251276;28;20390;-64
2022/03/23 05:42:33;;;;;;;37.25;18.88;;;;;;;3.23;89.55;101988.16;8255460;28;20538;-64
2022/03/23 05:46:33;;;;;;;41.35;18.75;;;;;;;3.27;89.66;101989.78;8249055;28;20093;-64
2022/03/23 05:50:34;;;;;;;44.47;21.17;;;;;;;3.41;89.06;101999.00;8227393;28;20063;-64
2022/03/23 05:54:34;;;;;;;36.83;18.65;;;;;;;3.48;88.53;102005.00;8279738;28;20057;-64
2022/03/23 05:58:35;;;;;;;39.30;18.20;;;;;;;3.47;88.91;101996.09;8255326;28;20050;-64
2022/03/23 06:02:35;;;;;;;42.25;19.50;;;;;;;3.51;88.16;102005.72;8245389;28;20474;-64
2022/03/23 06:06:36;;;;;;;34.75;18.67;;;;;;;3.62;88.30;101997.28;8239557;28;20042;-64
2022/03/23 06:10:36;;;;;;;37.17;18.15;;;;;;;3.76;87.83;102002.97;8239662;28;20414;-64
2022/03/23 06:14:38;;;;;;;39.65;18.30;;;;;;;3.85;87.49;101999.94;8267959;28;20045;-64
2022/03/23 06:18:40;;;;;;;40.50;19.33;;;;;;;3.96;87.61;101995.88;8258180;28;20070;-64
2022/03/23 06:22:40;;;;;;;40.72;19.60;;;;;;;4.01;86.84;102001.91;8248545;28;20053;-64
2022/03/23 06:26:41;;;;;;;38.70;19.17;;;;;;;4.21;85.68;102008.25;8251579;28;20046;-64
2022/03/23 06:30:41;;;;;;;37.88;19.75;;;;;;;4.30;85.79;102007.84;8229000;28;20062;-64
2022/03/23 06:34:42;;;;;;;38.20;18.58;;;;;;;5.09;83.52;102008.81;8243337;28;20046;-64
2022/03/23 06:38:42;;;;;;;43.10;21.25;;;;;;;4.68;83.99;102013.31;8250127;28;20073;-64
2022/03/23 06:42:43;;;;;;;49.55;25.75;;;;;;;4.80;84.15;102009.22;8260826;28;20398;-64
2022/03/23 06:46:43;;;;;;;47.63;24.17;;;;;;;4.88;83.14;102023.16;8252436;28;20038;-64
2022/03/23 06:50:45;;;;;;;56.35;27.23;;;;;;;5.18;82.45;102032.47;8262067;28;20029;-64
2022/03/23 06:54:45;;;;;;;50.45;22.15;;;;;;;5.42;81.38;102026.00;8253736;28;20046;-64
2022/03/23 06:58:45;;;;;;;58.97;26.92;;;;;;;5.64;81.57;102030.28;8278307;28;20127;-64
2022/03/23 07:02:48;;;;;;;45.88;22.23;;;;;;;5.76;80.61;102031.50;8253372;28;20303;-64
2022/03/23 07:06:48;;;;;;;59.58;25.30;;;;;;;6.08;80.87;102030.88;8259880;28;20035;-64
2022/03/23 07:10:49;;;;;;;54.55;23.67;;;;;;;6.38;80.45;102034.72;8261943;28;20514;-64
2022/03/23 07:14:50;;;;;;;41.70;21.38;;;;;;;6.54;79.03;102033.00;8270526;28;20562;-64
2022/03/23 07:18:50;;;;;;;39.30;20.35;;;;;;;6.90;78.67;102039.16;8258483;28;20507;-64
2022/03/23 07:22:51;;;;;;;50.05;22.77;;;;;;;7.25;77.59;102043.53;8286232;28;20030;-64
2022/03/23 07:26:51;;;;;;;57.63;22.48;;;;;;;7.41;78.44;102039.06;8260058;28;20129;-64
2022/03/23 07:30:52;;;;;;;49.55;21.10;;;;;;;7.63;78.10;102049.53;8224652;28;20572;-64
2022/03/23 07:34:52;;;;;;;41.20;19.58;;;;;;;8.01;77.13;102041.03;8253140;28;20124;-64
2022/03/23 07:38:53;;;;;;;47.75;21.77;;;;;;;8.01;76.58;102037.47;8252757;28;20038;-64
2022/03/23 07:42:53;;;;;;;41.78;22.02;;;;;;;8.33;76.70;102049.13;8257259;28;20096;-64
2022/03/23 07:46:54;;;;;;;40.80;20.67;;;;;;;8.57;73.29;102039.63;8270980;28;20080;-64
2022/03/23 07:50:54;;;;;;;44.30;21.92;;;;;;;8.95;74.65;102043.56;8269102;28;20522;-64
2022/03/23 07:54:55;;;;;;;42.28;20.92;;;;;;;9.14;73.06;102041.47;8273444;28;20044;-64
2022/03/23 07:58:55;;;;;;;36.85;19.98;;;;;;;9.43;72.98;102048.66;8250656;28;20469;-64
2022/03/23 08:02:55;;;;;;;37.55;21.55;;;;;;;9.54;72.98;102047.00;8253638;28;20415;-64
2022/03/23 08:06:57;;;;;;;42.90;20.47;;;;;;;10.03;71.86;102055.53;8284876;28;20026;-64
2022/03/23 08:10:57;;;;;;;39.17;20.33;;;;;;;10.52;70.61;102050.50;8282606;28;20273;-65
2022/03/23 08:14:57;;;;;;;44.80;20.13;;;;;;;10.26;69.11;102052.22;8268666;28;20168;-65
2022/03/23 08:18:58;;;;;;;40.22;19.42;;;;;;;10.37;69.30;102057.78;8258553;28;20584;-65
2022/03/23 08:23:01;;;;;;;35.00;18.80;;;;;;;10.73;68.16;102052.63;8271118;28;20490;-65
2022/03/23 08:27:02;;;;;;;40.63;20.90;;;;;;;11.29;69.84;102057.66;8256098;28;20038;-65
2022/03/23 08:31:02;;;;;;;39.53;20.55;;;;;;;11.46;69.73;102060.06;8258528;28;20089;-65
2022/03/23 08:35:03;;;;;;;39.63;21.00;;;;;;;11.40;66.99;102055.09;8284957;28;20045;-65
2022/03/23 08:39:05;;;;;;;36.78;20.52;;;;;;;11.72;66.86;102059.09;8275705;28;20066;-65
2022/03/23 08:43:05;;;;;;;38.15;19.48;;;;;;;12.11;66.16;102054.47;8268028;28;20279;-65
2022/03/23 08:47:06;;;;;;;33.97;20.75;;;;;;;12.54;64.63;102055.72;8259478;28;20130;-64
2022/03/23 08:51:07;;;;;;;35.42;20.50;;;;;;;12.36;64.61;102057.97;8257906;28;20125;-64
2022/03/23 08:55:10;;;;;;;36.83;20.00;;;;;;;12.86;62.51;102051.41;8279090;28;20490;-64
2022/03/23 08:59:10;;;;;;;42.03;20.35;;;;;;;12.75;62.41;102054.09;8248339;28;20057;-64
2022/03/23 09:03:11;;;;;;;37.45;19.15;;;;;;;13.23;61.14;102050.31;8246943;28;20038;-64
2022/03/23 09:07:11;;;;;;;34.47;20.08;;;;;;;13.33;60.90;102051.34;8244923;28;20038;-64
2022/03/23 09:11:11;;;;;;;36.75;20.45;;;;;;;13.70;60.23;102050.16;8247411;28;20053;-64
2022/03/23 09:15:15;;;;;;;40.08;21.08;;;;;;;14.28;61.15;102047.16;8237118;28;20050;-64
2022/03/23 09:19:19;;;;;;;38.42;20.65;;;;;;;14.24;58.56;102040.22;8232319;28;20042;-64
2022/03/23 09:23:20;;;;;;;36.17;19.33;;;;;;;14.55;57.68;102044.81;8245042;28;20134;-64
2022/03/23 09:27:21;;;;;;;49.67;20.02;;;;;;;15.91;55.00;102049.22;8244801;28;20053;-64
2022/03/23 09:31:21;;;;;;;36.40;18.33;;;;;;;17.25;50.32;102045.69;8247662;28;20073;-64
2022/03/23 09:35:21;;;;;;;33.80;19.50;;;;;;;19.29;47.34;102041.41;8246452;28;20046;-64
2022/03/23 09:39:22;;;;;;;36.10;19.85;;;;;;;19.93;45.05;102048.31;8253838;28;20046;-64
2022/03/23 09:43:24;;;;;;;37.05;18.58;;;;;;;20.26;43.99;102040.13;8264941;28;20042;-64
2022/03/23 09:47:25;;;;;;;33.25;18.15;;;;;;;20.75;43.21;102044.72;8265435;28;20034;-64
2022/03/23 09:51:25;;;;;;;33.22;18.13;;;;;;;21.15;42.24;102036.53;8257353;28;20047;-64
2022/03/23 09:55:26;;;;;;;38.42;18.58;;;;;;;22.34;41.87;102035.53;8260546;28;20516;-64
2022/03/23 09:59:26;;;;;;;30.95;18.27;;;;;;;22.70;39.36;102032.09;8248787;28;20054;-64
2022/03/23 10:04:06;;;;;;;37.65;17.42;;;;;;;22.99;41.49;102037.72;8246311;28;20085;-65
2022/03/23 10:08:46;;;;;;;31.02;17.83;;;;;;;23.29;39.33;102030.44;8244251;28;20077;-65
2022/03/23 10:13:26;;;;;;;45.42;20.85;;;;;;;24.04;39.53;102037.63;8244750;28;20520;-65
2022/03/23 10:17:54;;;;;;;40.00;19.67;;;;;;;24.66;38.82;102040.78;8250760;28;20502;-65
2022/03/23 10:22:07;;;;;;;38.85;19.50;;;;;;;24.24;39.66;102029.59;8247023;28;20399;-65
2022/03/23 10:26:12;;;;;;;34.33;18.90;;;;;;;25.34;38.26;102027.22;8249030;28;20043;-65
2022/03/23 10:30:15;;;;;;;39.22;19.75;;;;;;;24.68;37.28;102035.91;8243394;28;20065;-65
2022/03/23 10:34:15;;;;;;;32.92;18.90;;;;;;;24.79;37.32;102035.38;8255093;28;20346;-65
2022/03/23 10:38:18;;;;;;;36.40;19.60;;;;;;;24.89;36.64;102035.94;8244174;28;20050;-65
2022/03/23 10:42:20;;;;;;;37.15;19.85;;;;;;;24.55;36.71;102033.81;8226768;28;20129;-65
2022/03/23 10:46:21;;;;;;;35.97;18.45;;;;;;;25.31;35.82;102024.81;8220445;28;20316;-65
2022/03/23 10:50:23;;;;;;;37.03;18.27;;;;;;;26.58;34.64;102020.53;8205468;28;20043;-65
2022/03/23 10:54:25;;;;;;;35.17;18.70;;;;;;;27.21;33.08;102021.09;8217404;28;20045;-65
2022/03/23 10:58:26;;;;;;;29.98;17.13;;;;;;;27.15;32.82;102016.41;8215989;28;20526;-65
2022/03/23 11:02:27;;;;;;;30.50;17.38;;;;;;;27.79;33.77;102017.47;8222721;28;20118;-65
2022/03/23 11:06:27;;;;;;;34.30;18.43;;;;;;;27.98;32.98;102020.25;8204549;28;20514;-65
2022/03/23 11:16:06;;;;;;;30.70;17.67;;;;;;;27.80;33.17;102019.16;8211660;28;20550;-63
2022/03/23 11:19:26;;;;;;;33.53;17.15;;;;;;;28.72;32.15;102011.41;8273341;28;20042;-63
2022/03/23 11:23:30;;;;;;;31.67;18.17;;;;;;;28.51;32.00;102010.63;8268318;28;20398;-63
2022/03/23 11:27:31;;;;;;;34.50;18.30;;;;;;;28.55;31.87;102005.50;8264850;28;20057;-63
2022/03/23 11:31:31;;;;;;;29.92;17.73;;;;;;;28.47;31.40;101998.25;8263061;28;20039;-64
2022/03/23 11:35:32;;;;;;;32.58;17.05;;;;;;;28.52;31.32;101997.59;8275984;28;20038;-64
2022/03/23 11:39:33;;;;;;;28.05;18.10;;;;;;;28.73;30.54;101991.69;8258324;28;20046;-64
2022/03/23 11:43:34;;;;;;;31.05;17.67;;;;;;;28.85;31.12;101995.47;8263359;28;20515;-64
2022/03/23 11:47:42;;;;;;;32.55;18.27;;;;;;;29.12;31.04;101983.06;8256239;28;20437;-64
2022/03/23 11:52:10;;;;;;;30.73;18.65;;;;;;;28.67;30.53;101981.44;8252714;28;20038;-64
2022/03/23 11:56:22;;;;;;;27.58;18.27;;;;;;;28.14;30.41;101983.59;8250967;28;20097;-64
2022/03/23 12:00:26;;;;;;;34.53;19.02;;;;;;;28.67;30.17;101986.16;8259428;28;20403;-64
2022/03/23 12:04:28;;;;;;;29.20;18.52;;;;;;;28.83;30.81;101974.47;8269364;28;20046;-64
2022/03/23 12:08:55;;;;;;;29.05;17.00;;;;;;;28.53;30.34;101977.88;8265262;28;20054;-64
2022/03/23 12:12:55;;;;;;;41.50;17.67;;;;;;;29.02;30.02;101965.09;8258138;28;20049;-64
2022/03/23 12:17:01;;;;;;;32.03;16.77;;;;;;;28.72;31.40;101962.13;8273546;28;20048;-64
2022/03/23 12:21:01;;;;;;;30.08;16.80;;;;;;;28.68;30.90;101963.66;8263996;28;20353;-64
2022/03/23 12:25:09;;;;;;;31.95;17.90;;;;;;;29.39;30.82;101959.44;8259783;28;20043;-64
2022/03/23 12:29:17;;;;;;;27.67;16.45;;;;;;;28.99;30.99;101958.06;8259989;28;20108;-64
2022/03/23 12:33:20;;;;;;;22.00;14.57;;;;;;;27.30;28.07;101951.28;8256491;28;20045;-64
2022/03/23 12:37:21;;;;;;;30.23;16.03;;;;;;;26.71;30.04;101947.56;8242358;28;20124;-64
2022/03/23 12:41:21;;;;;;;24.33;14.27;;;;;;;27.85;29.20;101947.94;8268488;28;20478;-64
2022/03/23 12:45:23;;;;;;;26.40;14.17;;;;;;;28.46;28.62;101934.47;8267321;28;20731;-64
2022/03/23 12:58:10;;;;;;;20.35;13.23;;;;;;;23.86;31.33;101929.34;8268152;28;20046;-64
2022/03/23 13:02:31;;;;;;;22.93;13.90;;;;;;;21.86;33.02;101923.69;8275196;28;20132;-64
2022/03/23 13:06:34;;;;;;;30.83;16.75;;;;;;;20.57;35.53;101916.69;8267791;28;20042;-64
2022/03/23 13:10:34;;;;;;;31.02;17.30;;;;;;;19.97;36.53;101918.78;8259738;28;20026;-64
2022/03/23 13:14:35;;;;;;;35.85;18.17;;;;;;;19.72;38.32;101916.13;8265361;28;20110;-64
2022/03/23 13:18:37;;;;;;;39.17;19.75;;;;;;;19.44;39.79;101918.22;8266763;28;20409;-64
2022/03/23 13:22:39;;;;;;;38.55;20.40;;;;;;;19.34;40.71;101907.38;8266928;28;20044;-64
2022/03/23 13:26:45;;;;;;;37.65;20.00;;;;;;;19.78;42.39;101909.97;8274380;28;20038;-64
2022/03/23 13:30:46;;;;;;;36.45;19.88;;;;;;;19.54;41.03;101901.66;8250668;28;20114;-64
2022/03/23 13:34:53;;;;;;;33.08;17.75;;;;;;;19.48;40.54;101896.81;8267539;28;20049;-64
2022/03/23 13:38:57;;;;;;;36.88;18.60;;;;;;;19.40;39.45;101901.22;8264505;28;20081;-64
2022/03/23 13:43:34;;;;;;;36.47;19.80;;;;;;;19.59;40.31;101894.66;8260668;28;20108;-64
2022/03/23 13:47:38;;;;;;;31.98;16.27;;;;;;;19.18;38.84;101890.78;8253817;28;20026;-64
2022/03/23 13:51:44;;;;;;;33.30;17.42;;;;;;;19.28;39.96;101879.75;8244270;28;20259;-64
2022/03/23 13:55:47;;;;;;;35.05;17.60;;;;;;;19.23;39.03;101880.22;8250824;28;20130;-64
2022/03/23 13:59:47;;;;;;;38.95;18.42;;;;;;;19.43;39.47;101883.59;8250428;28;20058;-64
2022/03/23 14:03:49;;;;;;;34.97;17.13;;;;;;;19.22;38.72;101878.47;8244784;28;20041;-64
2022/03/23 14:07:49;;;;;;;30.38;17.08;;;;;;;19.18;38.88;101879.81;8267088;28;20131;-64
2022/03/23 14:12:06;;;;;;;32.88;16.33;;;;;;;19.19;39.01;101876.06;8268205;28;20041;-64
2022/03/23 14:16:06;;;;;;;30.50;14.82;;;;;;;19.26;39.12;101868.94;8254032;28;20391;-64
2022/03/23 14:20:08;;;;;;;30.80;17.38;;;;;;;19.14;38.75;101867.47;8257893;28;20045;-64
2022/03/23 14:24:08;;;;;;;25.83;14.18;;;;;;;19.26;38.66;101860.72;8269667;28;20034;-64
2022/03/23 14:28:16;;;;;;;24.60;14.25;;;;;;;19.14;38.78;101855.63;8270371;28;20043;-64
2022/03/23 14:32:27;;;;;;;28.00;14.50;;;;;;;19.29;39.16;101865.00;8260602;28;20049;-64
2022/03/23 14:36:28;;;;;;;26.88;14.80;;;;;;;19.21;38.58;101857.56;8256574;28;20046;-64
2022/03/23 14:40:31;;;;;;;27.23;15.55;;;;;;;19.23;38.81;101855.53;8257502;28;20053;-64
2022/03/23 14:44:34;;;;;;;31.80;16.58;;;;;;;19.16;39.05;101848.97;8250566;28;20042;-64
2022/03/23 14:48:36;;;;;;;28.60;15.23;;;;;;;19.17;38.74;101850.69;8225939;28;20046;-64
2022/03/23 14:52:37;;;;;;;29.65;15.50;;;;;;;18.98;38.47;101844.59;8248356;28;20042;-64
2022/03/23 14:56:39;;;;;;;32.65;15.65;;;;;;;19.04;39.06;101839.31;8233628;28;20030;-64
2022/03/23 15:00:39;;;;;;;26.95;14.23;;;;;;;19.13;39.96;101838.31;8257334;28;20128;-64
2022/03/23 15:04:39;;;;;;;33.90;15.35;;;;;;;19.21;39.52;101841.09;8261166;28;20068;-64
2022/03/23 15:13:15;;;;;;;63.85;33.75;;;;;;;18.99;39.40;101830.72;8246019;28;20274;-64
2022/03/23 15:17:16;;;;;;;40.05;21.20;;;;;;;19.07;39.65;101833.53;8237532;28;20675;-64
2022/03/23 15:21:19;;;;;;;30.77;15.63;;;;;;;19.18;39.92;101827.72;8236079;28;20452;-64
2022/03/23 15:25:19;;;;;;;50.72;17.00;;;;;;;18.95;39.57;101829.34;8233629;28;20042;-64
2022/03/23 15:29:20;;;;;;;27.95;15.45;;;;;;;18.99;40.24;101829.84;8242725;28;20055;-64
2022/03/23 15:33:20;;;;;;;35.08;16.40;;;;;;;18.90;40.02;101820.72;8252750;28;20038;-64
2022/03/23 15:37:21;;;;;;;32.75;16.90;;;;;;;18.87;40.18;101823.78;8236850;28;20054;-64
2022/03/23 15:41:22;;;;;;;31.88;17.02;;;;;;;18.81;40.28;101816.22;8251568;28;20030;-64
2022/03/23 15:45:23;;;;;;;28.65;17.17;;;;;;;18.76;39.92;101817.72;8262630;28;20389;-64
2022/03/23 15:49:24;;;;;;;39.83;18.30;;;;;;;18.75;39.90;101816.88;8241449;28;20414;-64
2022/03/23 15:53:24;;;;;;;29.38;16.70;;;;;;;18.80;40.40;101803.56;8205491;28;20066;-64
2022/03/23 15:57:25;;;;;;;37.00;18.58;;;;;;;18.82;40.30;101806.97;8204719;28;20050;-64
2022/03/23 16:01:26;;;;;;;34.30;17.55;;;;;;;18.77;40.28;101812.09;8204381;28;20047;-64
2022/03/23 16:05:26;;;;;;;36.30;17.73;;;;;;;18.63;40.30;101796.25;8203287;28;20093;-64
2022/03/23 16:09:27;;;;;;;35.67;18.42;;;;;;;18.64;40.32;101803.47;8216259;28;20027;-64
2022/03/23 16:13:27;;;;;;;32.37;16.57;;;;;;;18.65;40.34;101805.16;8204611;28;20066;-64
2022/03/23 16:17:28;;;;;;;33.50;17.30;;;;;;;18.62;40.54;101802.75;8203684;28;20292;-64
2022/03/23 16:21:29;;;;;;;32.55;17.95;;;;;;;18.54;40.62;101808.16;8229305;28;20054;-64
2022/03/23 16:25:29;;;;;;;35.75;17.75;;;;;;;18.50;40.90;101806.78;8231747;28;20347;-64
2022/03/23 16:29:30;;;;;;;42.25;18.48;;;;;;;18.40;40.65;101808.75;8241056;28;20044;-64
2022/03/23 16:33:30;;;;;;;35.78;19.55;;;;;;;18.31;40.41;101809.69;8232933;28;20570;-64
2022/03/23 16:37:31;;;;;;;38.87;18.77;;;;;;;18.29;41.12;101806.22;8234765;28;20072;-63
2022/03/23 16:41:35;;;;;;;38.10;18.65;;;;;;;18.23;41.20;101809.59;8221458;28;20865;-64
2022/03/23 16:45:35;;;;;;;40.13;18.07;;;;;;;18.23;41.07;101808.72;8228433;28;20530;-64
2022/03/23 16:49:36;;;;;;;36.10;18.45;;;;;;;18.10;41.39;101814.63;8230880;28;20710;-61
2022/03/23 16:53:36;;;;;;;44.17;19.08;;;;;;;17.98;41.86;101813.16;8242272;28;20045;-64
2022/03/23 16:57:37;;;;;;;41.05;19.00;;;;;;;17.89;42.01;101814.06;8231980;28;20065;-64
2022/03/23 17:01:38;;;;;;;36.25;19.60;;;;;;;17.77;42.42;101817.19;8239555;28;20510;-64
2022/03/23 17:14:20;;;;;;;36.35;19.02;;;;;;;17.50;42.29;101815.38;8237296;28;20062;-64
2022/03/23 17:18:20;;;;;;;42.40;18.85;;;;;;;17.34;42.53;101813.28;8242657;28;20093;-64
2022/03/23 17:22:25;;;;;;;32.53;17.92;;;;;;;17.27;42.71;101814.03;8250571;28;20347;-64
2022/03/23 17:26:26;;;;;;;38.95;20.83;;;;;;;17.10;43.49;101820.31;8233272;28;20130;-64
2022/03/23 17:30:26;;;;;;;47.10;23.98;;;;;;;16.96;43.83;101816.19;8234519;28;20042;-64
2022/03/23 17:34:27;;;;;;;38.95;20.23;;;;;;;16.52;45.12;101824.22;8229602;28;20120;-64
2022/03/23 17:38:28;;;;;;;35.22;18.60;;;;;;;16.63;44.49;101824.94;8236245;28;20544;-64
2022/03/23 17:42:29;;;;;;;41.92;19.83;;;;;;;16.61;44.70;101823.34;8238204;28;20437;-64
2022/03/23 17:46:30;;;;;;;49.20;19.77;;;;;;;16.29;45.70;101822.81;8240580;28;20049;-64
2022/03/23 17:50:31;;;;;;;45.15;20.40;;;;;;;15.65;47.48;101820.66;8223437;28;20817;-64
2022/03/23 17:54:31;;;;;;;34.55;18.50;;;;;;;15.42;48.24;101830.09;8222536;28;20769;-64
2022/03/23 17:58:32;;;;;;;38.15;18.17;;;;;;;15.17;48.70;101836.00;8233345;28;20093;-64
2022/03/23 18:02:34;;;;;;;42.45;18.38;;;;;;;15.29;48.56;101834.91;8227270;28;20070;-64
2022/03/23 18:06:34;;;;;;;38.22;17.98;;;;;;;15.20;47.91;101841.19;8223409;28;20042;-64
2022/03/23 18:10:35;;;;;;;40.60;18.65;;;;;;;15.00;49.02;101849.38;8237353;28;20487;-64
2022/03/23 18:14:36;;;;;;;25.15;13.93;;;;;;;15.05;54.83;101848.00;8233475;28;20350;-61
2022/03/23 18:18:36;;;;;;;26.80;13.80;;;;;;;15.12;56.54;101848.28;8221684;28;20070;-61
2022/03/23 18:22:37;;;;;;;37.50;17.85;;;;;;;14.74;54.28;101851.72;8239973;28;20127;-61
2022/03/23 18:26:38;;;;;;;45.13;19.85;;;;;;;14.82;53.84;101860.06;8234002;28;20467;-61
2022/03/23 18:30:39;;;;;;;42.35;20.20;;;;;;;13.99;52.56;101857.44;8235480;28;20042;-64
2022/03/23 18:34:39;;;;;;;42.72;19.08;;;;;;;13.91;52.88;101868.97;8237176;28;20042;-64
2022/03/23 18:38:45;;;;;;;42.15;18.95;;;;;;;13.77;53.39;101867.41;8244120;28;20043;-64
2022/03/23 18:42:46;;;;;;;47.13;20.25;;;;;;;13.50;54.06;101868.81;8229167;28;20042;-64
2022/03/23 18:46:47;;;;;;;35.50;18.67;;;;;;;13.24;54.51;101868.22;8234119;28;20078;-64
2022/03/23 18:50:47;;;;;;;43.17;19.70;;;;;;;12.88;55.54;101870.28;8224844;28;20027;-64
2022/03/23 18:54:48;;;;;;;42.15;18.67;;;;;;;12.83;55.55;101877.94;8226677;28;20046;-64
2022/03/23 18:58:48;;;;;;;48.03;20.00;;;;;;;12.34;56.88;101882.75;8233654;28;20129;-64